createdAt,value
2023-01-21T00:01:55.918Z,35.89
2023-01-21T00:06:57.160Z,34.62
2023-01-21T00:11:55.276Z,35.05
2023-01-21T00:16:55.497Z,34.94
2023-01-21T00:21:53.705Z,35.59
2023-01-21T00:26:52.869Z,36.65
2023-01-21T00:31:53.193Z,36.63
2023-01-21T00:36:51.182Z,35.47
2023-01-21T00:41:50.357Z,35.37
2023-01-21T00:46:49.748Z,36.34
2023-01-21T00:51:49.766Z,36.32
2023-01-21T00:56:47.932Z,36.02
2023-01-21T01:01:48.223Z,36.14
2023-01-21T01:06:46.371Z,36.12
2023-01-21T01:11:45.706Z,35.59
2023-01-21T01:16:44.122Z,36.22
2023-01-21T01:21:45.199Z,20.56
2023-01-21T01:26:44.473Z,18.85
2023-01-21T01:31:42.774Z,19.78
2023-01-21T01:36:42.083Z,20.30
2023-01-21T01:41:41.388Z,19.79
2023-01-21T01:46:40.764Z,18.49
2023-01-21T01:51:39.961Z,18.73
2023-01-21T01:56:39.179Z,19.35
2023-01-21T02:01:38.491Z,19.77
2023-01-21T02:06:37.828Z,20.40
2023-01-21T02:11:36.918Z,20.92
2023-01-21T02:16:37.340Z,21.34
2023-01-21T02:21:36.458Z,21.87
2023-01-21T02:26:34.778Z,22.17
2023-01-21T02:31:33.113Z,22.99
2023-01-21T02:36:33.422Z,23.32
2023-01-21T02:41:33.713Z,23.93
2023-01-21T02:46:32.023Z,24.44
2023-01-21T02:51:32.305Z,25.06
2023-01-21T02:56:32.641Z,25.38
2023-01-21T03:01:29.922Z,25.89
2023-01-21T03:06:29.222Z,25.99
2023-01-21T03:11:28.493Z,26.10
2023-01-21T03:16:28.938Z,26.62
2023-01-21T03:21:28.061Z,27.04
2023-01-21T03:26:26.377Z,26.93
2023-01-21T03:31:25.640Z,27.57
2023-01-21T03:36:24.916Z,28.00
2023-01-21T03:41:25.242Z,28.30
2023-01-21T03:46:24.654Z,28.29
2023-01-21T03:51:22.778Z,28.41
2023-01-21T03:56:21.910Z,28.61
2023-01-21T04:01:21.099Z,28.41
2023-01-21T04:06:20.239Z,28.70
2023-01-21T04:11:19.523Z,29.14
2023-01-21T04:16:18.743Z,29.25
2023-01-21T04:21:17.937Z,29.77
2023-01-21T04:26:16.166Z,29.89
2023-01-21T04:31:17.442Z,29.17
2023-01-21T04:36:15.695Z,28.66
2023-01-21T04:41:14.883Z,28.55
2023-01-21T04:46:16.127Z,28.63
2023-01-21T04:51:14.397Z,27.84
2023-01-21T04:56:13.621Z,28.36
2023-01-21T05:01:11.870Z,28.25
2023-01-21T05:06:12.073Z,28.05
2023-01-21T05:11:11.272Z,27.61
2023-01-21T05:16:10.497Z,28.12
2023-01-21T05:21:09.729Z,28.23
2023-01-21T05:26:07.905Z,28.34
2023-01-21T05:31:07.215Z,28.75
2023-01-21T05:36:07.346Z,28.75
2023-01-21T05:41:05.536Z,29.49
2023-01-21T05:46:07.751Z,28.77
2023-01-21T05:51:05.973Z,29.09
2023-01-21T05:56:03.160Z,28.99
2023-01-21T06:01:02.341Z,29.19
2023-01-21T06:06:02.531Z,28.58
2023-01-21T06:11:01.783Z,28.27
2023-01-21T06:16:02.027Z,27.85
2023-01-21T06:21:00.204Z,27.20
2023-01-21T06:25:59.364Z,26.18
2023-01-21T06:30:58.652Z,26.47
2023-01-21T06:35:56.678Z,26.35
2023-01-21T06:40:55.869Z,26.17
2023-01-21T06:45:55.151Z,26.67
2023-01-21T06:50:54.401Z,26.99
2023-01-21T06:55:54.613Z,26.89
2023-01-21T07:00:54.797Z,27.19
2023-01-21T07:05:50.984Z,26.89
2023-01-21T07:10:51.258Z,27.20
2023-01-21T07:15:51.502Z,27.19
2023-01-21T07:20:49.676Z,27.51
2023-01-21T07:25:48.832Z,27.81
2023-01-21T07:30:49.044Z,27.32
2023-01-21T07:35:49.215Z,27.23
2023-01-21T07:40:46.407Z,26.67
2023-01-21T07:45:45.592Z,24.59
2023-01-21T07:50:44.821Z,23.89
2023-01-21T07:55:44.009Z,23.47
2023-01-21T08:00:43.186Z,23.58
2023-01-21T08:05:43.348Z,24.43
2023-01-21T08:10:41.558Z,24.02
2023-01-21T08:15:40.743Z,25.26
2023-01-21T08:20:39.928Z,25.15
2023-01-21T08:25:39.084Z,25.24
2023-01-21T08:30:38.296Z,25.24
2023-01-21T08:35:37.491Z,24.84
2023-01-21T08:40:37.675Z,25.03
2023-01-21T08:45:36.846Z,25.75
2023-01-21T08:50:35.019Z,25.65
2023-01-21T08:55:35.190Z,25.46
2023-01-21T09:00:33.341Z,25.03
2023-01-21T09:05:34.530Z,23.58
2023-01-21T09:10:31.728Z,22.01
2023-01-21T09:15:32.905Z,21.59
2023-01-21T09:20:29.115Z,21.80
2023-01-21T09:25:30.330Z,20.50
2023-01-21T09:30:28.520Z,21.12
2023-01-21T09:35:27.712Z,23.43
2023-01-21T09:40:26.908Z,20.50
2023-01-21T09:45:27.116Z,19.06
2023-01-21T09:50:25.339Z,17.92
2023-01-21T09:55:24.533Z,15.94
2023-01-21T10:00:24.759Z,14.39
2023-01-21T10:05:23.973Z,13.49
2023-01-21T10:10:22.139Z,13.18
2023-01-21T10:15:21.326Z,12.98
2023-01-21T10:20:20.496Z,12.58
2023-01-21T10:25:19.795Z,12.17
2023-01-21T10:30:19.858Z,12.87
2023-01-21T10:35:18.324Z,12.37
2023-01-21T10:40:17.279Z,12.16
2023-01-21T10:45:16.818Z,11.96
2023-01-21T10:50:14.806Z,11.85
2023-01-21T10:55:16.545Z,11.94
2023-01-21T11:00:14.303Z,11.84
2023-01-21T11:05:14.761Z,12.05
2023-01-21T11:10:12.948Z,12.34
2023-01-21T11:15:12.245Z,12.63
2023-01-21T11:20:11.578Z,12.82
2023-01-21T11:25:10.919Z,13.60
2023-01-21T11:30:26.076Z,13.01
2023-01-21T11:35:10.714Z,12.90
2023-01-21T11:40:09.537Z,13.00
2023-01-21T11:45:07.892Z,13.10
2023-01-21T11:50:07.070Z,13.30
2023-01-21T11:55:06.224Z,13.40
2023-01-21T12:00:05.374Z,13.39
2023-01-21T12:05:05.506Z,13.49
2023-01-21T12:10:04.895Z,13.39
2023-01-21T12:15:04.018Z,13.28
2023-01-21T12:20:03.201Z,13.17
2023-01-21T12:25:01.547Z,12.85
2023-01-21T12:30:00.655Z,12.16
2023-01-21T12:34:59.986Z,13.56
2023-01-21T12:40:01.317Z,13.18
2023-01-21T12:44:57.599Z,12.62
2023-01-21T12:49:57.946Z,14.25
2023-01-21T12:54:57.225Z,14.18
2023-01-21T12:59:56.552Z,14.08
2023-01-21T13:04:55.835Z,14.69
2023-01-21T13:09:56.218Z,14.50
2023-01-21T13:14:53.364Z,15.42
2023-01-21T13:19:53.657Z,14.70
2023-01-21T13:24:52.947Z,14.90
2023-01-21T13:29:51.252Z,14.28
2023-01-21T13:34:51.535Z,14.45
2023-01-21T13:39:50.863Z,14.95
2023-01-21T13:44:51.187Z,15.86
2023-01-21T13:49:49.697Z,16.00
2023-01-21T13:54:50.855Z,14.57
2023-01-21T13:59:48.184Z,14.26
2023-01-21T14:04:47.262Z,14.51
2023-01-21T14:09:46.589Z,16.22
2023-01-21T14:14:45.900Z,14.89
2023-01-21T14:19:45.206Z,16.07
2023-01-21T14:24:44.361Z,15.00
2023-01-21T14:29:44.878Z,15.32
2023-01-21T14:34:41.974Z,16.21
2023-01-21T14:39:42.208Z,14.99
2023-01-21T14:44:40.367Z,14.83
2023-01-21T14:49:42.563Z,13.48
2023-01-21T14:54:40.669Z,13.46
2023-01-21T14:59:40.942Z,13.86
2023-01-21T15:04:39.375Z,14.15
2023-01-21T15:09:37.717Z,13.23
2023-01-21T15:14:36.988Z,13.33
2023-01-21T15:19:36.851Z,13.34
2023-01-21T15:24:35.020Z,13.92
2023-01-21T15:29:34.205Z,13.51
2023-01-21T15:34:33.414Z,13.51
2023-01-21T15:39:33.867Z,13.52
2023-01-21T15:44:34.701Z,14.10
2023-01-21T15:49:31.400Z,13.80
2023-01-21T15:54:30.463Z,13.81
2023-01-21T15:59:30.633Z,14.00
2023-01-21T16:04:29.080Z,14.29
2023-01-21T16:09:28.107Z,14.00
2023-01-21T16:14:27.378Z,14.28
2023-01-21T16:19:26.560Z,14.38
2023-01-21T16:24:26.835Z,13.50
2023-01-21T16:29:25.335Z,14.38
2023-01-21T16:34:24.659Z,14.19
2023-01-21T16:39:24.988Z,14.19
2023-01-21T16:44:24.192Z,13.42
2023-01-21T16:49:23.262Z,14.60
2023-01-21T16:54:21.856Z,14.40
2023-01-21T16:59:20.708Z,13.06
2023-01-21T17:04:21.909Z,16.19
2023-01-21T17:09:20.148Z,16.78
2023-01-21T17:14:19.751Z,16.69
2023-01-21T17:19:18.000Z,16.55
2023-01-21T17:24:17.877Z,17.41
2023-01-21T17:29:17.043Z,16.89
2023-01-21T17:34:15.281Z,15.50
2023-01-21T17:39:15.600Z,17.29
2023-01-21T17:44:14.151Z,17.28
2023-01-21T17:49:13.855Z,17.02
2023-01-21T17:54:16.675Z,17.33
2023-01-21T17:59:11.764Z,18.43
2023-01-21T18:04:12.045Z,17.28
2023-01-21T18:09:11.385Z,17.99
2023-01-21T18:14:10.427Z,17.12
2023-01-21T18:19:09.589Z,16.93
2023-01-21T18:24:08.229Z,18.22
2023-01-21T18:29:08.248Z,17.91
2023-01-21T18:34:07.532Z,18.52
2023-01-21T18:39:05.744Z,18.51
2023-01-21T18:44:04.985Z,18.92
2023-01-21T18:49:05.325Z,18.67
2023-01-21T18:54:08.465Z,18.35
2023-01-21T18:59:02.907Z,19.74
2023-01-21T19:04:02.877Z,20.26
2023-01-21T19:09:01.592Z,19.32
2023-01-21T19:14:00.336Z,19.95
2023-01-21T19:18:59.679Z,17.93
2023-01-21T19:23:59.144Z,18.71
2023-01-21T19:29:01.671Z,17.89
2023-01-21T19:33:57.666Z,19.35
2023-01-21T19:38:59.096Z,17.27
2023-01-21T19:43:57.143Z,19.18
2023-01-21T19:48:55.476Z,19.33
2023-01-21T19:53:55.391Z,18.84
2023-01-21T19:58:53.788Z,17.07
2023-01-21T20:04:00.110Z,17.21
2023-01-21T20:08:52.150Z,18.52
2023-01-21T20:13:52.517Z,18.40
2023-01-21T20:18:50.720Z,16.11
2023-01-21T20:23:49.609Z,17.80
2023-01-21T20:28:50.107Z,18.03
2023-01-21T20:33:48.325Z,17.74
2023-01-21T20:38:48.455Z,18.45
2023-01-21T20:43:52.291Z,18.25
2023-01-21T20:48:47.886Z,16.90
2023-01-21T20:53:46.225Z,16.80
2023-01-21T20:58:45.166Z,17.65
2023-01-21T21:03:45.438Z,17.72
2023-01-21T21:08:42.612Z,17.42
2023-01-21T21:13:41.945Z,17.60
2023-01-21T21:18:42.438Z,17.23
2023-01-21T21:23:42.642Z,18.82
2023-01-21T21:28:39.549Z,17.88
2023-01-21T21:33:40.044Z,17.25
2023-01-21T21:38:38.219Z,16.05
2023-01-21T21:43:37.069Z,16.75
2023-01-21T21:48:36.259Z,17.89
2023-01-21T21:53:35.442Z,16.67
2023-01-21T21:58:34.933Z,17.21
2023-01-21T22:03:35.482Z,16.04
2023-01-21T22:08:33.214Z,16.33
2023-01-21T22:13:34.491Z,15.93
2023-01-21T22:18:32.658Z,17.04
2023-01-21T22:23:30.875Z,17.16
2023-01-21T22:28:31.053Z,16.64
2023-01-21T22:33:29.241Z,17.07
2023-01-21T22:38:27.432Z,17.90
2023-01-21T22:43:28.628Z,16.88
2023-01-21T22:48:26.806Z,17.59
2023-01-21T22:53:27.012Z,17.05
2023-01-21T22:58:25.196Z,17.35
2023-01-21T23:03:24.370Z,16.14
2023-01-21T23:08:23.547Z,16.42
2023-01-21T23:13:23.752Z,16.43
2023-01-21T23:18:22.936Z,16.94
2023-01-21T23:23:22.241Z,16.42
2023-01-21T23:28:21.411Z,15.91
2023-01-21T23:33:20.625Z,15.30
2023-01-21T23:38:19.343Z,15.92
2023-01-21T23:43:18.166Z,16.02
2023-01-21T23:48:17.368Z,16.73
2023-01-21T23:53:16.543Z,16.42
2023-01-21T23:58:15.725Z,16.53
